sensor_id;sensor_type;location;lat;lon;timestamp;P1;durP1;ratioP1;P2;durP2;ratioP2
24216;SDS011;12356;49.386;8.688;2023-12-29T00:01:40;8.25;;;5.60;;
24216;SDS011;12356;49.386;8.688;2023-12-29T00:04:11;8.23;;;5.43;;
24216;SDS011;12356;49.386;8.688;2023-12-29T00:06:41;7.43;;;5.68;;
24216;SDS011;12356;49.386;8.688;2023-12-29T00:09:12;8.85;;;5.53;;
24216;SDS011;12356;49.386;8.688;2023-12-29T00:11:44;7.55;;;5.63;;
24216;SDS011;12356;49.386;8.688;2023-12-29T00:14:14;7.95;;;5.70;;
24216;SDS011;12356;49.386;8.688;2023-12-29T00:16:45;8.52;;;5.40;;
24216;SDS011;12356;49.386;8.688;2023-12-29T00:19:16;7.60;;;5.40;;
24216;SDS011;12356;49.386;8.688;2023-12-29T00:21:46;7.90;;;5.80;;
24216;SDS011;12356;49.386;8.688;2023-12-29T00:24:17;12.02;;;5.78;;
24216;SDS011;12356;49.386;8.688;2023-12-29T00:26:48;8.75;;;6.10;;
24216;SDS011;12356;49.386;8.688;2023-12-29T00:29:18;8.57;;;5.90;;
24216;SDS011;12356;49.386;8.688;2023-12-29T00:31:49;8.13;;;6.05;;
24216;SDS011;12356;49.386;8.688;2023-12-29T00:34:19;8.80;;;5.82;;
24216;SDS011;12356;49.386;8.688;2023-12-29T00:36:50;7.78;;;5.85;;
24216;SDS011;12356;49.386;8.688;2023-12-29T00:39:20;9.18;;;5.88;;
24216;SDS011;12356;49.386;8.688;2023-12-29T00:41:58;9.27;;;5.93;;
24216;SDS011;12356;49.386;8.688;2023-12-29T00:44:28;9.18;;;6.13;;
24216;SDS011;12356;49.386;8.688;2023-12-29T00:46:59;7.28;;;5.47;;
24216;SDS011;12356;49.386;8.688;2023-12-29T00:49:30;9.68;;;6.18;;
24216;SDS011;12356;49.386;8.688;2023-12-29T00:52:01;8.68;;;5.53;;
24216;SDS011;12356;49.386;8.688;2023-12-29T00:54:32;8.50;;;6.13;;
24216;SDS011;12356;49.386;8.688;2023-12-29T00:57:03;8.30;;;5.75;;
24216;SDS011;12356;49.386;8.688;2023-12-29T00:59:36;10.00;;;5.88;;
24216;SDS011;12356;49.386;8.688;2023-12-29T01:02:09;9.10;;;5.88;;
24216;SDS011;12356;49.386;8.688;2023-12-29T01:04:39;10.07;;;6.85;;
24216;SDS011;12356;49.386;8.688;2023-12-29T01:07:10;10.25;;;6.05;;
24216;SDS011;12356;49.386;8.688;2023-12-29T01:09:40;9.15;;;5.68;;
24216;SDS011;12356;49.386;8.688;2023-12-29T01:12:11;10.10;;;6.20;;
24216;SDS011;12356;49.386;8.688;2023-12-29T01:14:42;7.80;;;5.60;;
24216;SDS011;12356;49.386;8.688;2023-12-29T01:17:12;7.97;;;5.80;;
24216;SDS011;12356;49.386;8.688;2023-12-29T01:19:43;7.70;;;5.43;;
24216;SDS011;12356;49.386;8.688;2023-12-29T01:22:13;10.43;;;5.90;;
24216;SDS011;12356;49.386;8.688;2023-12-29T01:24:44;8.35;;;6.10;;
24216;SDS011;12356;49.386;8.688;2023-12-29T01:27:14;8.95;;;5.55;;
24216;SDS011;12356;49.386;8.688;2023-12-29T01:29:45;8.50;;;5.90;;
24216;SDS011;12356;49.386;8.688;2023-12-29T01:32:15;10.30;;;5.72;;
24216;SDS011;12356;49.386;8.688;2023-12-29T01:34:46;8.57;;;5.88;;
24216;SDS011;12356;49.386;8.688;2023-12-29T01:37:16;9.10;;;5.90;;
24216;SDS011;12356;49.386;8.688;2023-12-29T01:39:47;11.23;;;5.72;;
24216;SDS011;12356;49.386;8.688;2023-12-29T01:42:18;8.18;;;5.75;;
24216;SDS011;12356;49.386;8.688;2023-12-29T01:44:48;8.98;;;5.72;;
24216;SDS011;12356;49.386;8.688;2023-12-29T01:47:24;7.10;;;5.32;;
24216;SDS011;12356;49.386;8.688;2023-12-29T01:49:54;7.82;;;5.75;;
24216;SDS011;12356;49.386;8.688;2023-12-29T01:52:25;8.02;;;5.70;;
24216;SDS011;12356;49.386;8.688;2023-12-29T01:54:56;7.55;;;5.28;;
24216;SDS011;12356;49.386;8.688;2023-12-29T01:57:26;7.85;;;5.75;;
24216;SDS011;12356;49.386;8.688;2023-12-29T01:59:57;7.93;;;5.45;;
24216;SDS011;12356;49.386;8.688;2023-12-29T02:02:28;7.32;;;5.25;;
24216;SDS011;12356;49.386;8.688;2023-12-29T02:04:58;9.35;;;5.60;;
24216;SDS011;12356;49.386;8.688;2023-12-29T02:07:30;8.83;;;5.93;;
24216;SDS011;12356;49.386;8.688;2023-12-29T02:10:02;8.93;;;5.20;;
24216;SDS011;12356;49.386;8.688;2023-12-29T02:12:34;7.55;;;5.90;;
24216;SDS011;12356;49.386;8.688;2023-12-29T02:15:06;8.20;;;5.32;;
24216;SDS011;12356;49.386;8.688;2023-12-29T02:17:40;10.85;;;5.82;;
24216;SDS011;12356;49.386;8.688;2023-12-29T02:20:13;9.00;;;6.05;;
24216;SDS011;12356;49.386;8.688;2023-12-29T02:22:44;10.63;;;6.15;;
24216;SDS011;12356;49.386;8.688;2023-12-29T02:25:15;9.32;;;5.72;;
24216;SDS011;12356;49.386;8.688;2023-12-29T02:27:50;9.00;;;5.70;;
24216;SDS011;12356;49.386;8.688;2023-12-29T02:33:24;7.88;;;5.30;;
24216;SDS011;12356;49.386;8.688;2023-12-29T02:35:56;7.57;;;5.35;;
24216;SDS011;12356;49.386;8.688;2023-12-29T02:38:30;7.18;;;5.60;;
24216;SDS011;12356;49.386;8.688;2023-12-29T02:41:02;8.40;;;5.78;;
24216;SDS011;12356;49.386;8.688;2023-12-29T02:43:32;7.80;;;5.47;;
24216;SDS011;12356;49.386;8.688;2023-12-29T02:46:03;9.88;;;5.45;;
24216;SDS011;12356;49.386;8.688;2023-12-29T02:48:34;8.63;;;5.53;;
24216;SDS011;12356;49.386;8.688;2023-12-29T02:51:04;10.00;;;5.45;;
24216;SDS011;12356;49.386;8.688;2023-12-29T02:53:35;7.22;;;5.38;;
24216;SDS011;12356;49.386;8.688;2023-12-29T02:56:06;7.60;;;5.38;;
24216;SDS011;12356;49.386;8.688;2023-12-29T02:58:36;9.00;;;5.53;;
24216;SDS011;12356;49.386;8.688;2023-12-29T03:01:07;8.18;;;5.88;;
24216;SDS011;12356;49.386;8.688;2023-12-29T03:03:37;7.97;;;5.60;;
24216;SDS011;12356;49.386;8.688;2023-12-29T03:06:09;6.82;;;5.35;;
24216;SDS011;12356;49.386;8.688;2023-12-29T03:08:40;8.13;;;5.63;;
24216;SDS011;12356;49.386;8.688;2023-12-29T03:11:11;8.43;;;5.57;;
24216;SDS011;12356;49.386;8.688;2023-12-29T03:13:41;8.68;;;5.32;;
24216;SDS011;12356;49.386;8.688;2023-12-29T03:16:12;8.40;;;5.45;;
24216;SDS011;12356;49.386;8.688;2023-12-29T03:18:42;7.90;;;5.25;;
24216;SDS011;12356;49.386;8.688;2023-12-29T03:21:13;9.48;;;5.03;;
24216;SDS011;12356;49.386;8.688;2023-12-29T03:23:44;7.05;;;5.43;;
24216;SDS011;12356;49.386;8.688;2023-12-29T03:26:14;7.65;;;5.45;;
24216;SDS011;12356;49.386;8.688;2023-12-29T03:28:45;8.18;;;5.35;;
24216;SDS011;12356;49.386;8.688;2023-12-29T03:31:15;7.18;;;5.20;;
24216;SDS011;12356;49.386;8.688;2023-12-29T03:33:46;8.40;;;5.57;;
24216;SDS011;12356;49.386;8.688;2023-12-29T03:36:16;9.15;;;5.85;;
24216;SDS011;12356;49.386;8.688;2023-12-29T03:38:47;8.52;;;6.20;;
24216;SDS011;12356;49.386;8.688;2023-12-29T03:41:17;8.60;;;6.05;;
24216;SDS011;12356;49.386;8.688;2023-12-29T03:43:49;11.52;;;6.50;;
24216;SDS011;12356;49.386;8.688;2023-12-29T03:46:20;8.48;;;6.43;;
24216;SDS011;12356;49.386;8.688;2023-12-29T03:48:51;9.32;;;6.80;;
24216;SDS011;12356;49.386;8.688;2023-12-29T03:51:21;10.63;;;6.72;;
24216;SDS011;12356;49.386;8.688;2023-12-29T03:53:52;10.02;;;6.60;;
24216;SDS011;12356;49.386;8.688;2023-12-29T03:56:22;9.98;;;6.63;;
24216;SDS011;12356;49.386;8.688;2023-12-29T03:58:53;10.98;;;7.10;;
24216;SDS011;12356;49.386;8.688;2023-12-29T04:01:24;9.32;;;6.70;;
24216;SDS011;12356;49.386;8.688;2023-12-29T04:03:55;10.77;;;7.13;;
24216;SDS011;12356;49.386;8.688;2023-12-29T04:06:25;11.27;;;6.70;;
24216;SDS011;12356;49.386;8.688;2023-12-29T04:08:56;11.25;;;6.65;;
24216;SDS011;12356;49.386;8.688;2023-12-29T04:11:27;9.50;;;6.68;;
24216;SDS011;12356;49.386;8.688;2023-12-29T04:13:57;10.70;;;6.53;;
24216;SDS011;12356;49.386;8.688;2023-12-29T04:16:28;10.00;;;7.00;;
24216;SDS011;12356;49.386;8.688;2023-12-29T04:18:58;8.35;;;6.30;;
24216;SDS011;12356;49.386;8.688;2023-12-29T04:21:29;11.35;;;6.20;;
24216;SDS011;12356;49.386;8.688;2023-12-29T04:23:59;10.07;;;6.22;;
24216;SDS011;12356;49.386;8.688;2023-12-29T04:26:34;11.15;;;6.70;;
24216;SDS011;12356;49.386;8.688;2023-12-29T04:29:08;9.40;;;6.47;;
24216;SDS011;12356;49.386;8.688;2023-12-29T04:31:39;10.07;;;6.40;;
24216;SDS011;12356;49.386;8.688;2023-12-29T04:34:09;8.30;;;6.05;;
24216;SDS011;12356;49.386;8.688;2023-12-29T04:36:40;8.63;;;6.03;;
24216;SDS011;12356;49.386;8.688;2023-12-29T04:39:10;8.80;;;6.18;;
24216;SDS011;12356;49.386;8.688;2023-12-29T04:41:41;9.48;;;5.78;;
24216;SDS011;12356;49.386;8.688;2023-12-29T04:44:12;8.68;;;6.03;;
24216;SDS011;12356;49.386;8.688;2023-12-29T04:46:42;8.70;;;5.95;;
24216;SDS011;12356;49.386;8.688;2023-12-29T04:49:13;7.88;;;5.65;;
24216;SDS011;12356;49.386;8.688;2023-12-29T04:51:43;7.05;;;5.30;;
24216;SDS011;12356;49.386;8.688;2023-12-29T04:54:14;9.07;;;5.82;;
24216;SDS011;12356;49.386;8.688;2023-12-29T04:56:44;7.82;;;5.25;;
24216;SDS011;12356;49.386;8.688;2023-12-29T04:59:15;10.48;;;5.72;;
24216;SDS011;12356;49.386;8.688;2023-12-29T05:01:45;6.75;;;5.07;;
24216;SDS011;12356;49.386;8.688;2023-12-29T05:04:16;7.43;;;5.50;;
24216;SDS011;12356;49.386;8.688;2023-12-29T05:06:47;7.13;;;5.00;;
24216;SDS011;12356;49.386;8.688;2023-12-29T05:09:17;7.47;;;5.40;;
24216;SDS011;12356;49.386;8.688;2023-12-29T05:11:48;9.95;;;5.47;;
24216;SDS011;12356;49.386;8.688;2023-12-29T05:14:18;6.85;;;5.22;;
24216;SDS011;12356;49.386;8.688;2023-12-29T05:16:49;8.60;;;5.45;;
24216;SDS011;12356;49.386;8.688;2023-12-29T05:19:19;7.30;;;5.32;;
24216;SDS011;12356;49.386;8.688;2023-12-29T05:21:50;8.63;;;5.22;;
24216;SDS011;12356;49.386;8.688;2023-12-29T05:24:22;8.70;;;5.30;;
24216;SDS011;12356;49.386;8.688;2023-12-29T05:26:52;7.35;;;5.18;;
24216;SDS011;12356;49.386;8.688;2023-12-29T05:29:23;5.63;;;4.53;;
24216;SDS011;12356;49.386;8.688;2023-12-29T05:31:53;7.05;;;4.57;;
24216;SDS011;12356;49.386;8.688;2023-12-29T05:34:24;6.13;;;4.65;;
24216;SDS011;12356;49.386;8.688;2023-12-29T05:36:54;5.88;;;4.50;;
24216;SDS011;12356;49.386;8.688;2023-12-29T05:39:25;7.30;;;4.38;;
24216;SDS011;12356;49.386;8.688;2023-12-29T05:41:55;6.88;;;4.38;;
24216;SDS011;12356;49.386;8.688;2023-12-29T05:44:26;5.15;;;4.30;;
24216;SDS011;12356;49.386;8.688;2023-12-29T05:46:56;7.10;;;4.20;;
24216;SDS011;12356;49.386;8.688;2023-12-29T05:49:27;6.68;;;4.45;;
24216;SDS011;12356;49.386;8.688;2023-12-29T05:51:58;5.35;;;4.47;;
24216;SDS011;12356;49.386;8.688;2023-12-29T05:54:28;5.35;;;4.28;;
24216;SDS011;12356;49.386;8.688;2023-12-29T05:56:59;6.78;;;4.60;;
24216;SDS011;12356;49.386;8.688;2023-12-29T05:59:29;5.65;;;4.20;;
24216;SDS011;12356;49.386;8.688;2023-12-29T06:02:00;6.07;;;4.60;;
24216;SDS011;12356;49.386;8.688;2023-12-29T06:04:30;5.82;;;4.15;;
24216;SDS011;12356;49.386;8.688;2023-12-29T06:07:01;5.65;;;3.95;;
24216;SDS011;12356;49.386;8.688;2023-12-29T06:09:32;5.60;;;4.43;;
24216;SDS011;12356;49.386;8.688;2023-12-29T06:12:02;6.32;;;4.40;;
24216;SDS011;12356;49.386;8.688;2023-12-29T06:14:33;6.72;;;5.00;;
24216;SDS011;12356;49.386;8.688;2023-12-29T06:17:06;5.38;;;4.13;;
24216;SDS011;12356;49.386;8.688;2023-12-29T06:19:37;6.22;;;4.25;;
24216;SDS011;12356;49.386;8.688;2023-12-29T06:22:07;6.75;;;4.80;;
24216;SDS011;12356;49.386;8.688;2023-12-29T06:24:41;6.05;;;4.60;;
24216;SDS011;12356;49.386;8.688;2023-12-29T06:27:12;8.00;;;5.07;;
24216;SDS011;12356;49.386;8.688;2023-12-29T06:29:42;9.77;;;4.90;;
24216;SDS011;12356;49.386;8.688;2023-12-29T06:32:13;6.82;;;5.10;;
24216;SDS011;12356;49.386;8.688;2023-12-29T06:34:43;6.15;;;4.93;;
24216;SDS011;12356;49.386;8.688;2023-12-29T06:37:14;8.13;;;5.18;;
24216;SDS011;12356;49.386;8.688;2023-12-29T06:39:44;7.90;;;5.18;;
24216;SDS011;12356;49.386;8.688;2023-12-29T06:42:15;6.97;;;5.05;;
24216;SDS011;12356;49.386;8.688;2023-12-29T06:44:46;8.95;;;5.10;;
24216;SDS011;12356;49.386;8.688;2023-12-29T06:47:16;7.57;;;5.65;;
24216;SDS011;12356;49.386;8.688;2023-12-29T06:49:47;7.88;;;5.10;;
24216;SDS011;12356;49.386;8.688;2023-12-29T06:52:18;8.25;;;4.90;;
24216;SDS011;12356;49.386;8.688;2023-12-29T06:54:48;7.13;;;4.85;;
24216;SDS011;12356;49.386;8.688;2023-12-29T06:57:19;7.05;;;4.88;;
24216;SDS011;12356;49.386;8.688;2023-12-29T06:59:49;8.57;;;5.00;;
24216;SDS011;12356;49.386;8.688;2023-12-29T07:02:20;6.75;;;4.90;;
24216;SDS011;12356;49.386;8.688;2023-12-29T07:04:51;7.32;;;5.38;;
24216;SDS011;12356;49.386;8.688;2023-12-29T07:07:21;8.27;;;5.90;;
24216;SDS011;12356;49.386;8.688;2023-12-29T07:09:52;9.13;;;6.32;;
24216;SDS011;12356;49.386;8.688;2023-12-29T07:12:22;8.57;;;6.03;;
24216;SDS011;12356;49.386;8.688;2023-12-29T07:14:53;7.72;;;5.20;;
24216;SDS011;12356;49.386;8.688;2023-12-29T07:17:23;7.90;;;4.80;;
24216;SDS011;12356;49.386;8.688;2023-12-29T07:19:54;7.70;;;5.22;;
24216;SDS011;12356;49.386;8.688;2023-12-29T07:22:24;7.53;;;4.97;;
24216;SDS011;12356;49.386;8.688;2023-12-29T07:24:55;6.07;;;4.38;;
24216;SDS011;12356;49.386;8.688;2023-12-29T07:27:25;6.40;;;4.20;;
24216;SDS011;12356;49.386;8.688;2023-12-29T07:29:56;7.40;;;4.82;;
24216;SDS011;12356;49.386;8.688;2023-12-29T07:32:27;5.80;;;4.45;;
24216;SDS011;12356;49.386;8.688;2023-12-29T07:34:58;6.80;;;4.63;;
24216;SDS011;12356;49.386;8.688;2023-12-29T07:37:29;6.22;;;4.60;;
24216;SDS011;12356;49.386;8.688;2023-12-29T07:39:59;7.38;;;4.75;;
24216;SDS011;12356;49.386;8.688;2023-12-29T07:42:30;6.53;;;4.60;;
24216;SDS011;12356;49.386;8.688;2023-12-29T07:45:02;8.77;;;5.10;;
24216;SDS011;12356;49.386;8.688;2023-12-29T07:47:33;7.60;;;4.80;;
24216;SDS011;12356;49.386;8.688;2023-12-29T07:50:04;7.10;;;5.00;;
24216;SDS011;12356;49.386;8.688;2023-12-29T07:52:35;7.47;;;5.03;;
24216;SDS011;12356;49.386;8.688;2023-12-29T07:55:06;5.97;;;4.75;;
24216;SDS011;12356;49.386;8.688;2023-12-29T07:57:36;6.40;;;4.90;;
24216;SDS011;12356;49.386;8.688;2023-12-29T08:00:07;9.05;;;5.05;;
24216;SDS011;12356;49.386;8.688;2023-12-29T08:02:38;7.45;;;4.93;;
24216;SDS011;12356;49.386;8.688;2023-12-29T08:05:09;6.78;;;5.05;;
24216;SDS011;12356;49.386;8.688;2023-12-29T08:07:39;7.50;;;4.78;;
24216;SDS011;12356;49.386;8.688;2023-12-29T08:10:10;7.45;;;4.70;;
24216;SDS011;12356;49.386;8.688;2023-12-29T08:12:40;6.28;;;4.57;;
24216;SDS011;12356;49.386;8.688;2023-12-29T08:15:11;5.75;;;4.32;;
24216;SDS011;12356;49.386;8.688;2023-12-29T08:17:42;6.15;;;4.05;;
24216;SDS011;12356;49.386;8.688;2023-12-29T08:20:12;5.40;;;4.20;;
24216;SDS011;12356;49.386;8.688;2023-12-29T08:22:43;5.68;;;4.15;;
24216;SDS011;12356;49.386;8.688;2023-12-29T08:25:14;6.20;;;4.63;;
24216;SDS011;12356;49.386;8.688;2023-12-29T08:27:44;6.63;;;4.22;;
24216;SDS011;12356;49.386;8.688;2023-12-29T08:30:15;6.25;;;4.60;;
24216;SDS011;12356;49.386;8.688;2023-12-29T08:32:46;6.75;;;4.50;;
24216;SDS011;12356;49.386;8.688;2023-12-29T08:35:16;6.88;;;4.60;;
24216;SDS011;12356;49.386;8.688;2023-12-29T08:37:47;6.55;;;4.65;;
24216;SDS011;12356;49.386;8.688;2023-12-29T08:40:17;5.80;;;4.50;;
24216;SDS011;12356;49.386;8.688;2023-12-29T08:42:48;8.10;;;4.57;;
24216;SDS011;12356;49.386;8.688;2023-12-29T08:45:19;6.00;;;5.03;;
24216;SDS011;12356;49.386;8.688;2023-12-29T08:47:49;6.32;;;4.60;;
24216;SDS011;12356;49.386;8.688;2023-12-29T08:50:20;6.45;;;4.55;;
24216;SDS011;12356;49.386;8.688;2023-12-29T08:52:51;9.57;;;4.60;;
24216;SDS011;12356;49.386;8.688;2023-12-29T08:55:22;6.13;;;4.72;;
24216;SDS011;12356;49.386;8.688;2023-12-29T08:57:53;6.15;;;4.38;;
24216;SDS011;12356;49.386;8.688;2023-12-29T09:00:24;6.85;;;4.45;;
24216;SDS011;12356;49.386;8.688;2023-12-29T09:02:55;7.75;;;4.60;;
24216;SDS011;12356;49.386;8.688;2023-12-29T09:05:28;6.38;;;4.70;;
24216;SDS011;12356;49.386;8.688;2023-12-29T09:07:59;5.60;;;4.30;;
24216;SDS011;12356;49.386;8.688;2023-12-29T09:10:30;7.25;;;4.90;;
24216;SDS011;12356;49.386;8.688;2023-12-29T09:13:00;8.02;;;4.90;;
24216;SDS011;12356;49.386;8.688;2023-12-29T09:15:31;6.60;;;4.57;;
24216;SDS011;12356;49.386;8.688;2023-12-29T09:18:02;6.43;;;4.80;;
24216;SDS011;12356;49.386;8.688;2023-12-29T09:20:33;6.57;;;4.80;;
24216;SDS011;12356;49.386;8.688;2023-12-29T09:23:03;6.75;;;4.95;;
24216;SDS011;12356;49.386;8.688;2023-12-29T09:25:34;5.82;;;4.47;;
24216;SDS011;12356;49.386;8.688;2023-12-29T09:28:04;7.47;;;5.15;;
24216;SDS011;12356;49.386;8.688;2023-12-29T09:30:35;6.50;;;5.00;;
24216;SDS011;12356;49.386;8.688;2023-12-29T09:33:06;6.60;;;4.65;;
24216;SDS011;12356;49.386;8.688;2023-12-29T09:35:36;7.03;;;4.85;;
24216;SDS011;12356;49.386;8.688;2023-12-29T09:38:07;6.07;;;4.70;;
24216;SDS011;12356;49.386;8.688;2023-12-29T09:40:39;5.78;;;4.30;;
24216;SDS011;12356;49.386;8.688;2023-12-29T09:43:09;6.18;;;4.43;;
24216;SDS011;12356;49.386;8.688;2023-12-29T09:45:40;5.93;;;4.60;;
24216;SDS011;12356;49.386;8.688;2023-12-29T09:48:15;5.95;;;4.45;;
24216;SDS011;12356;49.386;8.688;2023-12-29T09:50:49;7.32;;;4.22;;
24216;SDS011;12356;49.386;8.688;2023-12-29T09:53:21;5.85;;;4.18;;
24216;SDS011;12356;49.386;8.688;2023-12-29T09:55:51;5.05;;;3.60;;
24216;SDS011;12356;49.386;8.688;2023-12-29T09:58:23;5.30;;;3.90;;
24216;SDS011;12356;49.386;8.688;2023-12-29T10:00:55;4.43;;;3.60;;
24216;SDS011;12356;49.386;8.688;2023-12-29T10:03:26;7.65;;;3.92;;
24216;SDS011;12356;49.386;8.688;2023-12-29T10:05:58;5.30;;;3.78;;
24216;SDS011;12356;49.386;8.688;2023-12-29T10:08:31;5.10;;;3.47;;
24216;SDS011;12356;49.386;8.688;2023-12-29T10:11:03;5.28;;;3.40;;
24216;SDS011;12356;49.386;8.688;2023-12-29T10:13:36;5.68;;;3.03;;
24216;SDS011;12356;49.386;8.688;2023-12-29T10:16:28;5.88;;;3.40;;
24216;SDS011;12356;49.386;8.688;2023-12-29T10:19:17;6.20;;;3.08;;
24216;SDS011;12356;49.386;8.688;2023-12-29T10:22:11;5.75;;;3.15;;
24216;SDS011;12356;49.386;8.688;2023-12-29T10:24:48;3.50;;;2.83;;
24216;SDS011;12356;49.386;8.688;2023-12-29T10:27:21;4.75;;;3.10;;
24216;SDS011;12356;49.386;8.688;2023-12-29T10:29:53;5.03;;;3.10;;
24216;SDS011;12356;49.386;8.688;2023-12-29T10:32:23;4.30;;;2.90;;
24216;SDS011;12356;49.386;8.688;2023-12-29T10:35:07;3.85;;;3.00;;
24216;SDS011;12356;49.386;8.688;2023-12-29T10:37:39;5.90;;;3.13;;
24216;SDS011;12356;49.386;8.688;2023-12-29T10:40:16;4.70;;;3.03;;
24216;SDS011;12356;49.386;8.688;2023-12-29T10:42:54;3.63;;;2.53;;
24216;SDS011;12356;49.386;8.688;2023-12-29T10:45:25;4.32;;;2.80;;
24216;SDS011;12356;49.386;8.688;2023-12-29T10:47:56;3.55;;;2.80;;
24216;SDS011;12356;49.386;8.688;2023-12-29T10:50:26;4.95;;;3.08;;
24216;SDS011;12356;49.386;8.688;2023-12-29T10:53:13;5.43;;;2.95;;
24216;SDS011;12356;49.386;8.688;2023-12-29T10:55:44;3.40;;;2.50;;
24216;SDS011;12356;49.386;8.688;2023-12-29T10:58:16;4.32;;;2.72;;
24216;SDS011;12356;49.386;8.688;2023-12-29T11:00:47;4.05;;;2.83;;
24216;SDS011;12356;49.386;8.688;2023-12-29T11:03:18;3.50;;;2.67;;
24216;SDS011;12356;49.386;8.688;2023-12-29T11:05:49;3.55;;;2.55;;
24216;SDS011;12356;49.386;8.688;2023-12-29T11:08:20;3.67;;;2.58;;
24216;SDS011;12356;49.386;8.688;2023-12-29T11:10:51;4.07;;;2.90;;
24216;SDS011;12356;49.386;8.688;2023-12-29T11:13:24;5.45;;;2.90;;
24216;SDS011;12356;49.386;8.688;2023-12-29T11:15:56;5.97;;;2.72;;
24216;SDS011;12356;49.386;8.688;2023-12-29T11:18:28;3.63;;;2.70;;
24216;SDS011;12356;49.386;8.688;2023-12-29T11:20:59;3.42;;;2.70;;
24216;SDS011;12356;49.386;8.688;2023-12-29T11:23:32;5.13;;;2.30;;
24216;SDS011;12356;49.386;8.688;2023-12-29T11:26:03;4.72;;;2.45;;
24216;SDS011;12356;49.386;8.688;2023-12-29T11:28:34;4.25;;;2.60;;
24216;SDS011;12356;49.386;8.688;2023-12-29T11:31:05;2.78;;;2.47;;
24216;SDS011;12356;49.386;8.688;2023-12-29T11:33:40;2.63;;;2.10;;
24216;SDS011;12356;49.386;8.688;2023-12-29T11:36:15;3.33;;;2.30;;
24216;SDS011;12356;49.386;8.688;2023-12-29T11:38:57;3.80;;;2.33;;
24216;SDS011;12356;49.386;8.688;2023-12-29T11:41:42;4.63;;;2.20;;
24216;SDS011;12356;49.386;8.688;2023-12-29T11:44:26;3.35;;;2.20;;
24216;SDS011;12356;49.386;8.688;2023-12-29T11:46:57;2.92;;;2.03;;
24216;SDS011;12356;49.386;8.688;2023-12-29T11:49:35;3.00;;;2.03;;
24216;SDS011;12356;49.386;8.688;2023-12-29T11:55:11;3.17;;;1.98;;
24216;SDS011;12356;49.386;8.688;2023-12-29T11:57:44;2.90;;;2.15;;
24216;SDS011;12356;49.386;8.688;2023-12-29T12:00:15;2.85;;;1.88;;
24216;SDS011;12356;49.386;8.688;2023-12-29T12:02:46;1.67;;;1.58;;
24216;SDS011;12356;49.386;8.688;2023-12-29T12:08:37;4.30;;;1.40;;
24216;SDS011;12356;49.386;8.688;2023-12-29T12:13:58;2.40;;;1.67;;
24216;SDS011;12356;49.386;8.688;2023-12-29T12:19:19;1.98;;;1.45;;
24216;SDS011;12356;49.386;8.688;2023-12-29T12:21:51;2.70;;;1.52;;
24216;SDS011;12356;49.386;8.688;2023-12-29T12:24:24;2.35;;;1.60;;
24216;SDS011;12356;49.386;8.688;2023-12-29T12:26:55;2.42;;;1.70;;
24216;SDS011;12356;49.386;8.688;2023-12-29T12:29:26;4.03;;;1.52;;
24216;SDS011;12356;49.386;8.688;2023-12-29T12:31:57;2.72;;;1.77;;
24216;SDS011;12356;49.386;8.688;2023-12-29T12:34:30;3.47;;;1.90;;
24216;SDS011;12356;49.386;8.688;2023-12-29T12:37:07;2.20;;;1.70;;
24216;SDS011;12356;49.386;8.688;2023-12-29T12:39:39;2.53;;;1.80;;
24216;SDS011;12356;49.386;8.688;2023-12-29T12:42:13;2.60;;;1.90;;
24216;SDS011;12356;49.386;8.688;2023-12-29T12:45:26;5.30;;;2.65;;
24216;SDS011;12356;49.386;8.688;2023-12-29T12:47:50;5.05;;;1.95;;
24216;SDS011;12356;49.386;8.688;2023-12-29T12:50:25;2.25;;;1.75;;
24216;SDS011;12356;49.386;8.688;2023-12-29T12:53:02;1.75;;;1.60;;
24216;SDS011;12356;49.386;8.688;2023-12-29T12:55:39;3.45;;;1.60;;
24216;SDS011;12356;49.386;8.688;2023-12-29T12:58:10;4.18;;;1.92;;
24216;SDS011;12356;49.386;8.688;2023-12-29T13:00:44;2.30;;;1.80;;
24216;SDS011;12356;49.386;8.688;2023-12-29T13:03:16;2.17;;;1.80;;
24216;SDS011;12356;49.386;8.688;2023-12-29T13:05:46;1.98;;;1.58;;
24216;SDS011;12356;49.386;8.688;2023-12-29T13:08:18;3.30;;;2.00;;
24216;SDS011;12356;49.386;8.688;2023-12-29T13:10:49;2.45;;;1.63;;
24216;SDS011;12356;49.386;8.688;2023-12-29T13:13:19;3.65;;;2.17;;
24216;SDS011;12356;49.386;8.688;2023-12-29T13:15:51;2.75;;;1.92;;
24216;SDS011;12356;49.386;8.688;2023-12-29T13:18:28;3.00;;;2.00;;
24216;SDS011;12356;49.386;8.688;2023-12-29T13:21:01;2.58;;;1.88;;
24216;SDS011;12356;49.386;8.688;2023-12-29T13:23:32;2.20;;;1.70;;
24216;SDS011;12356;49.386;8.688;2023-12-29T13:26:04;3.38;;;1.88;;
24216;SDS011;12356;49.386;8.688;2023-12-29T13:28:37;2.83;;;1.90;;
24216;SDS011;12356;49.386;8.688;2023-12-29T13:31:09;2.65;;;1.95;;
24216;SDS011;12356;49.386;8.688;2023-12-29T13:33:45;3.83;;;2.00;;
24216;SDS011;12356;49.386;8.688;2023-12-29T13:36:23;4.25;;;2.10;;
24216;SDS011;12356;49.386;8.688;2023-12-29T13:39:54;4.85;;;2.20;;
24216;SDS011;12356;49.386;8.688;2023-12-29T13:42:09;3.08;;;2.17;;
24216;SDS011;12356;49.386;8.688;2023-12-29T13:44:42;3.80;;;2.03;;
24216;SDS011;12356;49.386;8.688;2023-12-29T13:47:13;4.03;;;2.25;;
24216;SDS011;12356;49.386;8.688;2023-12-29T13:49:44;3.45;;;2.20;;
24216;SDS011;12356;49.386;8.688;2023-12-29T13:52:17;3.28;;;2.50;;
24216;SDS011;12356;49.386;8.688;2023-12-29T13:54:49;3.55;;;2.20;;
24216;SDS011;12356;49.386;8.688;2023-12-29T13:57:29;4.70;;;2.10;;
24216;SDS011;12356;49.386;8.688;2023-12-29T14:00:20;2.63;;;2.08;;
24216;SDS011;12356;49.386;8.688;2023-12-29T14:05:28;4.63;;;1.97;;
24216;SDS011;12356;49.386;8.688;2023-12-29T14:10:48;3.05;;;2.35;;
24216;SDS011;12356;49.386;8.688;2023-12-29T14:13:19;3.63;;;2.50;;
24216;SDS011;12356;49.386;8.688;2023-12-29T14:15:50;4.00;;;2.72;;
24216;SDS011;12356;49.386;8.688;2023-12-29T14:21:29;5.35;;;2.20;;
24216;SDS011;12356;49.386;8.688;2023-12-29T14:24:06;3.97;;;2.15;;
24216;SDS011;12356;49.386;8.688;2023-12-29T14:26:41;2.95;;;2.10;;
24216;SDS011;12356;49.386;8.688;2023-12-29T14:29:28;2.85;;;2.10;;
24216;SDS011;12356;49.386;8.688;2023-12-29T14:32:10;3.38;;;2.28;;
24216;SDS011;12356;49.386;8.688;2023-12-29T14:34:41;3.70;;;2.70;;
24216;SDS011;12356;49.386;8.688;2023-12-29T14:37:11;3.60;;;2.63;;
24216;SDS011;12356;49.386;8.688;2023-12-29T14:39:46;3.63;;;2.55;;
24216;SDS011;12356;49.386;8.688;2023-12-29T14:42:20;2.80;;;2.22;;
24216;SDS011;12356;49.386;8.688;2023-12-29T14:44:51;2.78;;;2.25;;
24216;SDS011;12356;49.386;8.688;2023-12-29T14:47:21;2.92;;;2.40;;
24216;SDS011;12356;49.386;8.688;2023-12-29T14:49:52;4.65;;;2.20;;
24216;SDS011;12356;49.386;8.688;2023-12-29T14:52:23;3.25;;;2.30;;
24216;SDS011;12356;49.386;8.688;2023-12-29T14:54:53;3.22;;;2.30;;
24216;SDS011;12356;49.386;8.688;2023-12-29T14:57:24;3.83;;;2.00;;
24216;SDS011;12356;49.386;8.688;2023-12-29T14:59:54;2.50;;;1.83;;
24216;SDS011;12356;49.386;8.688;2023-12-29T15:02:25;2.17;;;1.90;;
24216;SDS011;12356;49.386;8.688;2023-12-29T15:04:55;2.65;;;1.70;;
24216;SDS011;12356;49.386;8.688;2023-12-29T15:07:26;3.92;;;1.73;;
24216;SDS011;12356;49.386;8.688;2023-12-29T15:10:00;2.85;;;1.60;;
24216;SDS011;12356;49.386;8.688;2023-12-29T15:12:31;3.70;;;1.60;;
24216;SDS011;12356;49.386;8.688;2023-12-29T15:15:01;2.17;;;1.50;;
24216;SDS011;12356;49.386;8.688;2023-12-29T15:17:33;1.90;;;1.60;;
24216;SDS011;12356;49.386;8.688;2023-12-29T15:20:06;4.80;;;1.60;;
24216;SDS011;12356;49.386;8.688;2023-12-29T15:22:37;2.90;;;1.75;;
24216;SDS011;12356;49.386;8.688;2023-12-29T15:25:07;4.05;;;1.92;;
24216;SDS011;12356;49.386;8.688;2023-12-29T15:27:38;2.50;;;1.60;;
24216;SDS011;12356;49.386;8.688;2023-12-29T15:30:08;4.25;;;2.13;;
24216;SDS011;12356;49.386;8.688;2023-12-29T15:32:41;3.20;;;1.88;;
24216;SDS011;12356;49.386;8.688;2023-12-29T15:35:12;2.38;;;1.75;;
24216;SDS011;12356;49.386;8.688;2023-12-29T15:37:42;2.58;;;1.75;;
24216;SDS011;12356;49.386;8.688;2023-12-29T15:40:13;2.10;;;1.55;;